createdAt,value
2023-02-26T00:01:16.603Z,1.80
2023-02-26T00:04:19.300Z,1.86
2023-02-26T00:07:21.959Z,1.81
2023-02-26T00:10:24.559Z,1.87
2023-02-26T00:13:29.391Z,1.84
2023-02-26T00:16:34.160Z,1.88
2023-02-26T00:19:37.197Z,1.71
2023-02-26T00:22:40.501Z,1.73
2023-02-26T00:25:43.479Z,1.69
2023-02-26T00:28:48.057Z,1.54
2023-02-26T00:31:51.703Z,1.42
2023-02-26T00:34:55.432Z,1.41
2023-02-26T00:38:00.983Z,1.37
2023-02-26T00:41:06.106Z,1.31
2023-02-26T00:44:10.774Z,1.29
2023-02-26T00:47:19.846Z,1.20
2023-02-26T00:50:24.332Z,1.04
2023-02-26T00:53:30.294Z,0.97
2023-02-26T00:56:33.118Z,0.97
2023-02-26T00:59:37.042Z,0.91
2023-02-26T01:02:39.972Z,0.89
2023-02-26T01:05:43.093Z,0.97
2023-02-26T01:08:49.375Z,0.86
2023-02-26T01:11:52.737Z,0.93
2023-02-26T01:14:57.112Z,0.87
2023-02-26T01:18:05.983Z,0.86
2023-02-26T01:21:11.836Z,0.86
2023-02-26T01:24:16.853Z,0.74
2023-02-26T01:27:19.782Z,0.60
2023-02-26T01:30:25.500Z,0.52
2023-02-26T01:33:31.536Z,0.32
2023-02-26T01:36:37.691Z,0.19
2023-02-26T01:39:43.564Z,0.06
2023-02-26T01:42:48.217Z,-0.15
2023-02-26T01:45:58.317Z,-0.06
2023-02-26T01:49:01.916Z,-0.11
2023-02-26T01:52:05.494Z,-0.17
2023-02-26T01:55:08.263Z,-0.09
2023-02-26T01:58:10.891Z,-0.21
2023-02-26T02:01:14.828Z,-0.18
2023-02-26T02:04:17.503Z,-0.30
2023-02-26T02:07:20.319Z,-0.38
2023-02-26T02:10:23.312Z,-0.30
2023-02-26T02:13:37.023Z,-0.52
2023-02-26T02:16:48.696Z,-0.74
2023-02-26T02:20:15.452Z,-0.57
2023-02-26T02:23:21.453Z,-0.50
2023-02-26T02:27:04.232Z,-0.63
2023-02-26T02:30:26.667Z,-0.55
2023-02-26T02:33:33.983Z,-0.63
2023-02-26T02:36:40.801Z,-0.66
2023-02-26T02:39:44.902Z,-0.56
2023-02-26T02:42:51.266Z,-0.61
2023-02-26T02:45:56.170Z,-0.65
2023-02-26T02:49:02.277Z,-0.78
2023-02-26T02:52:10.928Z,-0.93
2023-02-26T02:55:18.999Z,-1.06
2023-02-26T02:58:23.993Z,-0.98
2023-02-26T03:01:28.883Z,-0.83
2023-02-26T03:04:32.874Z,-0.73
2023-02-26T03:07:37.885Z,-0.84
2023-02-26T03:10:40.876Z,-0.87
2023-02-26T03:13:43.712Z,-1.01
2023-02-26T03:17:02.530Z,-0.95
2023-02-26T03:20:15.497Z,-0.86
2023-02-26T03:23:21.558Z,-1.10
2023-02-26T03:26:30.928Z,-0.94
2023-02-26T03:29:43.005Z,-0.68
2023-02-26T03:32:51.443Z,-0.61
2023-02-26T03:35:58.109Z,-0.47
2023-02-26T03:39:05.633Z,-0.40
2023-02-26T03:42:11.045Z,-0.60
2023-02-26T03:45:15.882Z,-0.78
2023-02-26T03:48:21.575Z,-1.02
2023-02-26T03:51:26.467Z,-1.20
2023-02-26T03:54:32.106Z,-1.12
2023-02-26T03:57:34.797Z,-1.16
2023-02-26T04:00:42.750Z,-1.16
2023-02-26T04:03:49.137Z,-1.44
2023-02-26T04:06:53.665Z,-1.44
2023-02-26T04:09:57.505Z,-1.33
2023-02-26T04:13:01.212Z,-1.27
2023-02-26T04:16:04.316Z,-1.35
2023-02-26T04:19:06.981Z,-1.48
2023-02-26T04:22:11.179Z,-1.47
2023-02-26T04:25:14.139Z,-1.44
2023-02-26T04:28:17.288Z,-1.49
2023-02-26T04:31:20.584Z,-1.54
2023-02-26T04:34:23.315Z,-1.72
2023-02-26T04:37:27.366Z,-1.72
2023-02-26T04:40:30.142Z,-1.69
2023-02-26T04:43:33.162Z,-1.56
2023-02-26T04:46:35.797Z,-1.47
2023-02-26T04:49:38.636Z,-1.36
2023-02-26T04:52:42.591Z,-1.27
2023-02-26T04:55:45.236Z,-1.25
2023-02-26T04:58:47.807Z,-1.05
2023-02-26T05:01:50.588Z,-0.88
2023-02-26T05:04:53.263Z,-1.05
2023-02-26T05:07:57.256Z,-1.30
2023-02-26T05:10:59.916Z,-1.48
2023-02-26T05:14:02.550Z,-1.54
2023-02-26T05:17:05.232Z,-1.67
2023-02-26T05:20:10.290Z,-1.65
2023-02-26T05:23:14.398Z,-1.61
2023-02-26T05:26:16.969Z,-1.64
2023-02-26T05:29:19.604Z,-1.82
2023-02-26T05:32:22.829Z,-1.81
2023-02-26T05:35:25.550Z,-1.84
2023-02-26T05:38:29.448Z,-1.91
2023-02-26T05:41:31.884Z,-1.84
2023-02-26T05:44:35.419Z,-1.85
2023-02-26T05:47:38.224Z,-1.94
2023-02-26T05:50:40.859Z,-1.83
2023-02-26T05:53:44.805Z,-1.74
2023-02-26T05:56:47.588Z,-1.71
2023-02-26T05:59:50.319Z,-1.67
2023-02-26T06:02:52.872Z,-1.77
2023-02-26T06:05:55.501Z,-1.92
2023-02-26T06:09:01.324Z,-1.92
2023-02-26T06:12:04.224Z,-1.76
2023-02-26T06:15:08.658Z,-1.92
2023-02-26T06:18:11.469Z,-1.98
2023-02-26T06:21:14.492Z,-1.85
2023-02-26T06:24:18.474Z,-1.64
2023-02-26T06:27:21.052Z,-1.58
2023-02-26T06:30:23.848Z,-1.68
2023-02-26T06:33:26.591Z,-1.57
2023-02-26T06:36:29.135Z,-1.31
2023-02-26T06:39:33.178Z,-1.02
2023-02-26T06:42:35.775Z,-0.86
2023-02-26T06:45:38.428Z,-0.72
2023-02-26T06:48:41.200Z,-0.40
2023-02-26T06:51:44.007Z,-0.44
2023-02-26T06:54:47.935Z,-0.56
2023-02-26T06:57:50.370Z,-0.57
2023-02-26T07:00:53.149Z,-0.43
2023-02-26T07:03:56.112Z,-0.22
2023-02-26T07:06:59.310Z,-0.12
2023-02-26T07:10:03.550Z,0.12
2023-02-26T07:13:06.242Z,0.14
2023-02-26T07:16:09.004Z,0.43
2023-02-26T07:19:11.947Z,0.60
2023-02-26T07:22:14.998Z,0.65
2023-02-26T07:25:19.109Z,0.94
2023-02-26T07:28:21.799Z,1.30
2023-02-26T07:31:24.573Z,1.68
2023-02-26T07:34:27.349Z,2.17
2023-02-26T07:37:29.930Z,1.97
2023-02-26T07:40:35.155Z,1.82
2023-02-26T07:43:37.765Z,2.29
2023-02-26T07:46:40.553Z,1.98
2023-02-26T07:49:43.144Z,1.65
2023-02-26T07:52:46.309Z,1.78
2023-02-26T07:55:50.697Z,1.74
2023-02-26T07:58:53.826Z,1.68
2023-02-26T08:01:56.920Z,1.82
2023-02-26T08:04:59.660Z,2.11
2023-02-26T08:08:03.269Z,2.30
2023-02-26T08:11:07.285Z,2.55
2023-02-26T08:14:10.378Z,2.56
2023-02-26T08:17:12.928Z,2.66
2023-02-26T08:20:16.411Z,3.29
2023-02-26T08:23:18.971Z,3.76
2023-02-26T08:26:23.664Z,3.90
2023-02-26T08:29:26.579Z,3.58
2023-02-26T08:32:29.314Z,3.66
2023-02-26T08:35:32.149Z,3.40
2023-02-26T08:38:34.902Z,3.05
2023-02-26T08:41:39.437Z,3.44
2023-02-26T08:44:41.953Z,2.69
2023-02-26T08:47:56.371Z,2.21
2023-02-26T08:50:59.836Z,2.32
2023-02-26T08:54:02.482Z,2.27
2023-02-26T08:57:06.419Z,2.29
2023-02-26T09:00:11.512Z,1.98
2023-02-26T09:03:14.480Z,2.22
2023-02-26T09:06:17.061Z,2.05
2023-02-26T09:09:20.268Z,2.41
2023-02-26T09:12:24.161Z,2.59
2023-02-26T09:15:26.635Z,3.04
2023-02-26T09:18:29.270Z,3.21
2023-02-26T09:21:32.366Z,3.42
2023-02-26T09:24:35.719Z,3.21
2023-02-26T09:27:39.660Z,3.17
2023-02-26T09:30:42.201Z,3.06
2023-02-26T09:33:44.843Z,3.31
2023-02-26T09:36:47.582Z,3.02
2023-02-26T09:39:50.076Z,2.80
2023-02-26T09:43:03.504Z,2.65
2023-02-26T09:46:10.993Z,2.82
2023-02-26T09:49:29.991Z,2.89
2023-02-26T09:52:36.954Z,3.11
2023-02-26T09:55:43.592Z,3.04
2023-02-26T09:58:47.853Z,3.11
2023-02-26T10:01:57.667Z,2.91
2023-02-26T10:05:07.438Z,2.78
2023-02-26T10:08:18.330Z,2.38
2023-02-26T10:11:27.197Z,2.21
2023-02-26T10:14:34.862Z,2.59
2023-02-26T10:17:47.924Z,2.88
2023-02-26T10:20:56.427Z,3.10
2023-02-26T10:24:06.116Z,3.12
2023-02-26T10:27:13.946Z,2.90
2023-02-26T10:30:24.220Z,2.78
2023-02-26T10:33:34.106Z,3.04
2023-02-26T10:36:49.480Z,3.16
2023-02-26T10:39:56.903Z,2.98
2023-02-26T10:43:01.379Z,3.41
2023-02-26T10:46:17.375Z,3.63
2023-02-26T10:49:36.625Z,3.62
2023-02-26T10:52:39.805Z,3.64
2023-02-26T10:55:44.648Z,3.68
2023-02-26T10:58:47.520Z,3.25
2023-02-26T11:01:52.229Z,3.42
2023-02-26T11:05:06.924Z,3.42
2023-02-26T11:08:14.707Z,3.90
2023-02-26T11:11:41.279Z,4.20
2023-02-26T11:14:45.013Z,4.20
2023-02-26T11:17:49.765Z,4.48
2023-02-26T11:20:56.079Z,4.87
2023-02-26T11:24:00.843Z,5.02
2023-02-26T11:27:05.572Z,5.03
2023-02-26T11:30:19.793Z,4.42
2023-02-26T11:33:36.480Z,3.76
2023-02-26T11:36:42.166Z,3.48
2023-02-26T11:39:47.230Z,3.62
2023-02-26T11:42:55.356Z,3.37
2023-02-26T11:46:00.672Z,3.78
2023-02-26T11:49:04.814Z,3.61
2023-02-26T11:52:18.640Z,3.82
2023-02-26T11:55:22.993Z,3.90
2023-02-26T11:58:26.150Z,4.12
2023-02-26T12:01:30.368Z,3.74
2023-02-26T12:04:34.334Z,3.48
2023-02-26T12:07:37.171Z,3.30
2023-02-26T12:10:44.059Z,3.74
2023-02-26T12:13:58.873Z,4.26
2023-02-26T12:17:09.660Z,4.56
2023-02-26T12:20:20.558Z,4.71
2023-02-26T12:23:47.108Z,4.55
2023-02-26T12:26:56.034Z,4.32
2023-02-26T12:30:09.689Z,3.80
2023-02-26T12:33:21.081Z,3.82
2023-02-26T12:36:47.994Z,3.36
2023-02-26T12:39:59.448Z,3.52
2023-02-26T12:43:07.327Z,4.05
2023-02-26T12:46:18.131Z,4.47
2023-02-26T12:49:41.051Z,4.71
2023-02-26T12:53:10.784Z,5.44
2023-02-26T12:57:01.477Z,4.48
2023-02-26T13:00:15.264Z,4.67
2023-02-26T13:03:49.520Z,5.29
2023-02-26T13:07:10.588Z,4.61
2023-02-26T13:10:20.576Z,5.21
2023-02-26T13:13:35.379Z,5.41
2023-02-26T13:16:45.952Z,4.94
2023-02-26T13:19:50.776Z,4.84
2023-02-26T13:22:56.790Z,4.81
2023-02-26T13:26:02.228Z,4.96
2023-02-26T13:29:07.475Z,4.29
2023-02-26T13:32:13.894Z,5.04
2023-02-26T13:35:22.741Z,5.26
2023-02-26T13:38:33.621Z,5.46
2023-02-26T13:41:47.782Z,5.69
2023-02-26T13:44:53.174Z,5.25
2023-02-26T13:48:13.575Z,4.90
2023-02-26T13:51:29.043Z,5.49
2023-02-26T13:54:43.712Z,5.89
2023-02-26T13:57:52.929Z,7.58
2023-02-26T14:01:00.328Z,8.08
2023-02-26T14:04:25.133Z,7.86
2023-02-26T14:07:49.457Z,6.88
2023-02-26T14:10:58.165Z,5.78
2023-02-26T14:14:13.875Z,5.26
2023-02-26T14:17:27.872Z,5.51
2023-02-26T14:20:31.843Z,5.91
2023-02-26T14:23:38.029Z,8.78
2023-02-26T14:26:46.431Z,11.95
2023-02-26T14:30:18.091Z,12.17
2023-02-26T14:33:28.646Z,9.94
2023-02-26T14:36:36.502Z,6.68
2023-02-26T14:39:41.658Z,5.46
2023-02-26T14:46:14.488Z,7.18
2023-02-26T14:49:22.141Z,7.20
2023-02-26T14:52:52.256Z,9.53
2023-02-26T14:56:07.858Z,17.20
2023-02-26T14:59:39.459Z,18.49
2023-02-26T15:02:53.679Z,15.57
2023-02-26T15:06:14.515Z,13.64
2023-02-26T15:09:21.473Z,10.25
2023-02-26T15:12:48.311Z,7.40
2023-02-26T15:15:55.277Z,5.83
2023-02-26T15:19:15.436Z,5.24
2023-02-26T15:22:30.788Z,4.69
2023-02-26T15:25:36.288Z,4.58
2023-02-26T15:28:41.462Z,4.85
2023-02-26T15:31:46.404Z,5.13
2023-02-26T15:34:56.817Z,5.09
2023-02-26T15:38:02.467Z,4.95
2023-02-26T15:41:05.302Z,5.20
2023-02-26T15:44:10.713Z,6.72
2023-02-26T15:47:14.619Z,6.47
2023-02-26T15:50:18.562Z,9.43
2023-02-26T15:53:25.226Z,8.22
2023-02-26T15:56:31.716Z,9.62
2023-02-26T15:59:34.927Z,8.37
2023-02-26T16:02:39.258Z,7.77
2023-02-26T16:05:43.241Z,8.14
2023-02-26T16:08:45.974Z,8.49
2023-02-26T16:11:50.872Z,5.32
2023-02-26T16:14:56.991Z,4.20
2023-02-26T16:18:00.550Z,3.86
2023-02-26T16:21:07.450Z,3.36
2023-02-26T16:24:18.851Z,3.06
2023-02-26T16:27:22.860Z,2.98
2023-02-26T16:30:32.849Z,3.05
2023-02-26T16:33:35.628Z,3.07
2023-02-26T16:36:42.339Z,3.00
2023-02-26T16:39:46.154Z,3.02
2023-02-26T16:42:53.048Z,3.07
2023-02-26T16:45:57.742Z,3.13
2023-02-26T16:49:02.027Z,3.10
2023-02-26T16:52:06.907Z,2.88
2023-02-26T16:55:18.327Z,2.83
2023-02-26T16:58:21.884Z,2.87
2023-02-26T17:01:25.547Z,2.87
2023-02-26T17:04:29.857Z,2.84
2023-02-26T17:07:36.333Z,2.79
2023-02-26T17:10:41.199Z,2.63
2023-02-26T17:13:43.920Z,2.60
2023-02-26T17:16:47.439Z,2.62
2023-02-26T17:19:50.760Z,2.64
2023-02-26T17:22:56.142Z,2.61
2023-02-26T17:26:02.284Z,2.53
2023-02-26T17:29:04.936Z,2.49
2023-02-26T17:35:37.023Z,2.39
2023-02-26T17:38:42.252Z,2.23
2023-02-26T17:41:46.016Z,2.22
2023-02-26T17:44:48.743Z,2.31
2023-02-26T17:47:51.313Z,2.21
2023-02-26T17:50:55.436Z,2.19
2023-02-26T17:53:59.584Z,1.93
2023-02-26T17:57:02.219Z,1.67
2023-02-26T18:00:05.527Z,1.58
2023-02-26T18:03:08.701Z,1.39
2023-02-26T18:06:14.625Z,1.17
2023-02-26T18:09:19.566Z,1.02
2023-02-26T18:12:23.532Z,0.92
2023-02-26T18:15:26.793Z,1.02
2023-02-26T18:18:30.765Z,1.00
2023-02-26T18:21:34.160Z,1.03
2023-02-26T18:24:40.083Z,0.96
2023-02-26T18:27:42.985Z,1.04
2023-02-26T18:30:45.990Z,1.06
2023-02-26T18:33:54.462Z,0.95
2023-02-26T18:36:57.080Z,0.90
2023-02-26T18:40:04.719Z,0.96
2023-02-26T18:43:10.342Z,0.95
2023-02-26T18:46:13.765Z,1.14
2023-02-26T18:49:18.516Z,1.07
2023-02-26T18:52:21.311Z,1.01
2023-02-26T18:55:28.083Z,1.04
2023-02-26T18:58:30.976Z,0.91
2023-02-26T19:01:33.797Z,0.91
2023-02-26T19:04:36.744Z,0.90
2023-02-26T19:07:39.806Z,0.92
2023-02-26T19:10:43.706Z,0.95
2023-02-26T19:13:47.179Z,0.96
2023-02-26T19:16:49.783Z,0.88
2023-02-26T19:19:52.657Z,0.81
2023-02-26T19:22:55.301Z,0.60
2023-02-26T19:25:59.257Z,0.56
2023-02-26T19:29:02.471Z,0.52
2023-02-26T19:32:05.743Z,0.41
2023-02-26T19:35:09.379Z,0.30
2023-02-26T19:38:12.493Z,0.51
2023-02-26T19:41:18.759Z,0.83
2023-02-26T19:44:21.978Z,1.02
2023-02-26T19:47:24.682Z,1.06
2023-02-26T19:50:27.434Z,0.97
2023-02-26T19:53:31.387Z,0.95
2023-02-26T19:56:35.684Z,0.93
2023-02-26T19:59:38.200Z,0.73
2023-02-26T20:02:43.010Z,0.74
2023-02-26T20:05:45.692Z,0.75
2023-02-26T20:08:48.841Z,0.73
2023-02-26T20:11:52.928Z,0.74
2023-02-26T20:14:55.503Z,0.83
2023-02-26T20:17:58.181Z,0.80
2023-02-26T20:21:02.154Z,0.84
2023-02-26T20:24:05.470Z,0.71
2023-02-26T20:27:09.488Z,0.45
2023-02-26T20:30:13.079Z,0.22
2023-02-26T20:33:15.862Z,0.16
2023-02-26T20:36:18.491Z,0.05
2023-02-26T20:39:21.114Z,-0.02
2023-02-26T20:42:25.402Z,-0.10
2023-02-26T20:45:28.712Z,-0.16
2023-02-26T20:48:31.712Z,-0.25
2023-02-26T20:51:34.321Z,-0.21
2023-02-26T20:54:36.976Z,-0.31
2023-02-26T20:57:40.959Z,-0.40
2023-02-26T21:00:43.952Z,-0.41
2023-02-26T21:03:46.608Z,-0.31
2023-02-26T21:06:49.824Z,-0.29
2023-02-26T21:09:52.715Z,-0.17
2023-02-26T21:12:56.856Z,-0.15
2023-02-26T21:15:59.813Z,-0.19
2023-02-26T21:19:03.842Z,-0.26
2023-02-26T21:22:06.504Z,-0.36
2023-02-26T21:25:09.986Z,-0.37
2023-02-26T21:28:13.999Z,-0.35
2023-02-26T21:31:17.237Z,-0.28
2023-02-26T21:34:33.253Z,-0.30
2023-02-26T21:37:36.235Z,-0.31
2023-02-26T21:40:39.535Z,-0.16
2023-02-26T21:43:45.845Z,0.09
2023-02-26T21:46:48.380Z,0.18
2023-02-26T21:49:51.085Z,0.33
2023-02-26T21:52:53.902Z,0.39
2023-02-26T21:55:56.760Z,0.48
2023-02-26T21:59:00.809Z,0.45
2023-02-26T22:02:03.606Z,0.59
2023-02-26T22:05:06.416Z,0.59
2023-02-26T22:11:36.704Z,0.51
2023-02-26T22:14:43.167Z,0.50
2023-02-26T22:17:45.853Z,0.31
2023-02-26T22:20:48.955Z,0.08
2023-02-26T22:23:51.762Z,-0.09
2023-02-26T22:26:54.853Z,-0.23
2023-02-26T22:29:58.824Z,-0.37
2023-02-26T22:33:01.488Z,-0.25
2023-02-26T22:36:04.483Z,-0.31
2023-02-26T22:39:07.693Z,-0.36
2023-02-26T22:42:10.239Z,-0.33
2023-02-26T22:45:17.119Z,-0.46
2023-02-26T22:48:20.843Z,-0.58
2023-02-26T22:51:23.917Z,-0.67
2023-02-26T22:54:27.192Z,-0.83
2023-02-26T22:57:29.864Z,-0.89
2023-02-26T23:00:33.871Z,-0.98
2023-02-26T23:03:41.323Z,-0.94
2023-02-26T23:06:44.053Z,-0.93
2023-02-26T23:09:46.660Z,-0.93
2023-02-26T23:12:49.239Z,-1.01
2023-02-26T23:15:53.542Z,-1.06
2023-02-26T23:18:56.298Z,-1.14
2023-02-26T23:21:59.134Z,-1.18
2023-02-26T23:25:01.763Z,-1.08
2023-02-26T23:28:04.381Z,-1.01
2023-02-26T23:31:08.666Z,-1.08
2023-02-26T23:34:11.420Z,-1.23
2023-02-26T23:37:14.132Z,-1.26
2023-02-26T23:40:17.051Z,-1.20
2023-02-26T23:43:19.657Z,-1.17
2023-02-26T23:46:23.784Z,-1.10
2023-02-26T23:49:26.520Z,-1.09
2023-02-26T23:52:29.123Z,-1.19
2023-02-26T23:55:31.662Z,-1.25
2023-02-26T23:58:34.263Z,-1.19
